Avant, Oklahoma
Current Conditions -  °F | °C
As of 2:53 AM on Thursday 27 Nov 2014 (Local Time) from KBVO Reporting Station
Clear Clear  
Wind Chill: 19°   Ceiling: Unl
Heat Index: 27°   Visibility: 10mi
Dew Point: 21°   Wind: 7mph
Humidity: 78%   Direction: 10°N
Pressure: 30.5"   Gusts: NA
Location:  36.49°N, 96.06°W
Report Text: KBVO 270853Z AUTO 01006KT 10SM CLR M03/M06 A3050 RMK AO2 SLP330 T10281061 53014
Loading
Personal Weather Stations






























Interactive Weather Map New forecast layout! Learn more

10-Day Weather Forecast

Advertisements
Track Severe Weather on mobile